sensor_id;sensor_type;location;lat;lon;timestamp;temperature;humidity
1546;DHT22;766;51.502;9.752;2023-09-19T10:05:17;19.70;99.90
1546;DHT22;766;51.502;9.752;2023-09-19T10:07:55;19.80;99.90
1546;DHT22;766;51.502;9.752;2023-09-19T10:10:31;19.80;99.90
1546;DHT22;766;51.502;9.752;2023-09-19T10:13:22;19.70;99.90
1546;DHT22;766;51.502;9.752;2023-09-19T10:15:55;19.70;99.90
1546;DHT22;766;51.502;9.752;2023-09-19T10:18:25;19.80;99.90
1546;DHT22;766;51.502;9.752;2023-09-19T10:20:56;19.70;99.90
1546;DHT22;766;51.502;9.752;2023-09-19T10:23:27;19.80;99.90
1546;DHT22;766;51.502;9.752;2023-09-19T10:25:58;19.90;99.90
1546;DHT22;766;51.502;9.752;2023-09-19T10:28:30;20.10;99.90
1546;DHT22;766;51.502;9.752;2023-09-19T10:31:00;20.30;99.90
1546;DHT22;766;51.502;9.752;2023-09-19T10:33:35;20.30;99.90
1546;DHT22;766;51.502;9.752;2023-09-19T10:36:05;20.40;99.90
1546;DHT22;766;51.502;9.752;2023-09-19T10:38:35;20.40;99.90
1546;DHT22;766;51.502;9.752;2023-09-19T10:41:08;20.50;99.90
1546;DHT22;766;51.502;9.752;2023-09-19T10:43:41;20.60;99.90
1546;DHT22;766;51.502;9.752;2023-09-19T10:46:12;20.60;99.90
1546;DHT22;766;51.502;9.752;2023-09-19T10:48:41;20.30;99.90
1546;DHT22;766;51.502;9.752;2023-09-19T10:51:14;20.20;99.90
1546;DHT22;766;51.502;9.752;2023-09-19T10:53:47;20.20;99.90
1546;DHT22;766;51.502;9.752;2023-09-19T10:56:21;20.20;99.90
1546;DHT22;766;51.502;9.752;2023-09-19T10:59:05;20.20;99.90
1546;DHT22;766;51.502;9.752;2023-09-19T11:01:44;20.20;99.90
1546;DHT22;766;51.502;9.752;2023-09-19T11:04:25;20.30;99.90
1546;DHT22;766;51.502;9.752;2023-09-19T11:07:02;20.30;99.90
1546;DHT22;766;51.502;9.752;2023-09-19T11:09:47;20.20;99.90
1546;DHT22;766;51.502;9.752;2023-09-19T11:12:49;19.80;99.90
1546;DHT22;766;51.502;9.752;2023-09-19T11:18:54;19.30;99.90
1546;DHT22;766;51.502;9.752;2023-09-19T11:21:52;19.00;99.90
1546;DHT22;766;51.502;9.752;2023-09-19T11:24:28;18.90;99.90
1546;DHT22;766;51.502;9.752;2023-09-19T11:27:12;18.90;99.90
1546;DHT22;766;51.502;9.752;2023-09-19T11:29:41;19.00;99.90
1546;DHT22;766;51.502;9.752;2023-09-19T11:32:09;19.10;99.90
1546;DHT22;766;51.502;9.752;2023-09-19T11:34:46;19.10;99.90
1546;DHT22;766;51.502;9.752;2023-09-19T11:40:37;19.20;99.90
1546;DHT22;766;51.502;9.752;2023-09-19T11:43:28;19.20;99.90
1546;DHT22;766;51.502;9.752;2023-09-19T11:46:07;19.10;99.90
1546;DHT22;766;51.502;9.752;2023-09-19T11:48:37;19.20;99.90
1546;DHT22;766;51.502;9.752;2023-09-19T11:51:17;19.30;99.90
1546;DHT22;766;51.502;9.752;2023-09-19T11:53:51;19.30;99.90
1546;DHT22;766;51.502;9.752;2023-09-19T11:56:21;19.40;99.90
1546;DHT22;766;51.502;9.752;2023-09-19T11:58:52;19.60;99.90
1546;DHT22;766;51.502;9.752;2023-09-19T12:01:24;19.80;99.90
1546;DHT22;766;51.502;9.752;2023-09-19T12:03:57;20.00;99.90
1546;DHT22;766;51.502;9.752;2023-09-19T12:06:29;20.20;99.90
1546;DHT22;766;51.502;9.752;2023-09-19T12:08:59;20.30;99.90
1546;DHT22;766;51.502;9.752;2023-09-19T12:11:33;20.20;99.90
1546;DHT22;766;51.502;9.752;2023-09-19T12:14:10;19.90;99.90
1546;DHT22;766;51.502;9.752;2023-09-19T12:16:38;19.90;99.90
1546;DHT22;766;51.502;9.752;2023-09-19T12:19:19;20.10;99.90
1546;DHT22;766;51.502;9.752;2023-09-19T12:22:01;20.10;99.90
1546;DHT22;766;51.502;9.752;2023-09-19T12:24:32;19.90;99.90
1546;DHT22;766;51.502;9.752;2023-09-19T12:27:06;20.00;99.90
1546;DHT22;766;51.502;9.752;2023-09-19T12:29:43;20.30;99.90
1546;DHT22;766;51.502;9.752;2023-09-19T12:32:12;20.50;99.90
1546;DHT22;766;51.502;9.752;2023-09-19T12:34:41;20.40;99.90
1546;DHT22;766;51.502;9.752;2023-09-19T12:37:13;20.20;99.90
1546;DHT22;766;51.502;9.752;2023-09-19T12:39:49;20.00;99.90
1546;DHT22;766;51.502;9.752;2023-09-19T12:42:20;20.00;99.90
1546;DHT22;766;51.502;9.752;2023-09-19T12:44:50;19.90;99.90
1546;DHT22;766;51.502;9.752;2023-09-19T12:47:22;19.90;99.90
1546;DHT22;766;51.502;9.752;2023-09-19T12:50:06;19.70;99.90
1546;DHT22;766;51.502;9.752;2023-09-19T12:52:42;19.80;99.90
1546;DHT22;766;51.502;9.752;2023-09-19T12:55:22;20.10;99.90
1546;DHT22;766;51.502;9.752;2023-09-19T12:57:59;20.20;99.90
1546;DHT22;766;51.502;9.752;2023-09-19T13:00:33;20.20;99.90
1546;DHT22;766;51.502;9.752;2023-09-19T13:03:16;20.10;99.90
1546;DHT22;766;51.502;9.752;2023-09-19T13:05:50;20.10;99.90
1546;DHT22;766;51.502;9.752;2023-09-19T13:08:21;20.10;99.90
1546;DHT22;766;51.502;9.752;2023-09-19T13:11:05;20.00;99.90
1546;DHT22;766;51.502;9.752;2023-09-19T13:13:38;19.90;99.90
1546;DHT22;766;51.502;9.752;2023-09-19T13:16:07;20.00;99.90
1546;DHT22;766;51.502;9.752;2023-09-19T13:18:47;19.80;99.90
1546;DHT22;766;51.502;9.752;2023-09-19T13:21:27;19.60;99.90
1546;DHT22;766;51.502;9.752;2023-09-19T13:24:17;19.60;99.90
1546;DHT22;766;51.502;9.752;2023-09-19T13:26:46;19.40;99.90
1546;DHT22;766;51.502;9.752;2023-09-19T13:29:15;19.50;99.90
1546;DHT22;766;51.502;9.752;2023-09-19T13:31:48;19.40;99.90
1546;DHT22;766;51.502;9.752;2023-09-19T13:34:17;19.50;99.90
1546;DHT22;766;51.502;9.752;2023-09-19T13:36:45;19.50;99.90
1546;DHT22;766;51.502;9.752;2023-09-19T13:39:16;19.40;99.90
1546;DHT22;766;51.502;9.752;2023-09-19T13:41:45;19.50;99.90
1546;DHT22;766;51.502;9.752;2023-09-19T13:44:15;19.40;99.90
1546;DHT22;766;51.502;9.752;2023-09-19T13:46:44;19.10;99.90
1546;DHT22;766;51.502;9.752;2023-09-19T13:49:14;19.10;99.90
1546;DHT22;766;51.502;9.752;2023-09-19T13:51:42;19.10;99.90
1546;DHT22;766;51.502;9.752;2023-09-19T13:54:11;19.30;99.90
1546;DHT22;766;51.502;9.752;2023-09-19T13:56:43;19.10;99.90
1546;DHT22;766;51.502;9.752;2023-09-19T13:59:11;19.20;99.90
1546;DHT22;766;51.502;9.752;2023-09-19T14:01:40;19.30;99.90
1546;DHT22;766;51.502;9.752;2023-09-19T14:04:09;19.30;99.90
1546;DHT22;766;51.502;9.752;2023-09-19T14:06:42;19.20;99.90
1546;DHT22;766;51.502;9.752;2023-09-19T14:09:10;19.10;99.90
1546;DHT22;766;51.502;9.752;2023-09-19T14:11:51;19.10;99.90
1546;DHT22;766;51.502;9.752;2023-09-19T14:14:20;19.10;99.90
1546;DHT22;766;51.502;9.752;2023-09-19T14:16:48;19.20;99.90
1546;DHT22;766;51.502;9.752;2023-09-19T14:19:17;19.20;99.90
1546;DHT22;766;51.502;9.752;2023-09-19T14:21:45;19.10;99.90
1546;DHT22;766;51.502;9.752;2023-09-19T14:24:16;19.00;99.90
1546;DHT22;766;51.502;9.752;2023-09-19T14:26:48;18.90;99.90
1546;DHT22;766;51.502;9.752;2023-09-19T14:29:17;18.90;99.90
1546;DHT22;766;51.502;9.752;2023-09-19T14:31:46;18.80;99.90
1546;DHT22;766;51.502;9.752;2023-09-19T14:34:17;18.80;99.90
1546;DHT22;766;51.502;9.752;2023-09-19T14:36:46;18.80;99.90
1546;DHT22;766;51.502;9.752;2023-09-19T14:39:15;18.80;99.90
1546;DHT22;766;51.502;9.752;2023-09-19T14:41:45;18.70;99.90
1546;DHT22;766;51.502;9.752;2023-09-19T14:44:13;18.60;99.90
1546;DHT22;766;51.502;9.752;2023-09-19T14:46:43;18.70;99.90
1546;DHT22;766;51.502;9.752;2023-09-19T14:49:12;18.60;99.90
1546;DHT22;766;51.502;9.752;2023-09-19T14:51:43;18.60;99.90
1546;DHT22;766;51.502;9.752;2023-09-19T14:54:11;18.60;99.90
1546;DHT22;766;51.502;9.752;2023-09-19T14:56:40;18.50;99.90
1546;DHT22;766;51.502;9.752;2023-09-19T14:59:12;18.40;99.90
1546;DHT22;766;51.502;9.752;2023-09-19T15:01:43;18.30;99.90
1546;DHT22;766;51.502;9.752;2023-09-19T15:04:11;18.30;99.90
1546;DHT22;766;51.502;9.752;2023-09-19T15:06:40;18.20;99.90
1546;DHT22;766;51.502;9.752;2023-09-19T15:09:08;18.10;99.90
1546;DHT22;766;51.502;9.752;2023-09-19T15:11:36;18.10;99.90
1546;DHT22;766;51.502;9.752;2023-09-19T15:14:05;18.10;99.90
1546;DHT22;766;51.502;9.752;2023-09-19T15:16:37;18.10;99.90
1546;DHT22;766;51.502;9.752;2023-09-19T15:19:07;18.00;99.90
1546;DHT22;766;51.502;9.752;2023-09-19T15:21:37;18.00;99.90
1546;DHT22;766;51.502;9.752;2023-09-19T15:24:06;18.00;99.90
1546;DHT22;766;51.502;9.752;2023-09-19T15:26:37;18.00;99.90
1546;DHT22;766;51.502;9.752;2023-09-19T15:29:06;18.00;99.90
1546;DHT22;766;51.502;9.752;2023-09-19T15:31:37;17.90;99.90
1546;DHT22;766;51.502;9.752;2023-09-19T15:34:06;17.90;99.90
1546;DHT22;766;51.502;9.752;2023-09-19T15:36:34;17.90;99.90
1546;DHT22;766;51.502;9.752;2023-09-19T15:39:04;17.80;99.90
1546;DHT22;766;51.502;9.752;2023-09-19T15:41:34;17.80;99.90
1546;DHT22;766;51.502;9.752;2023-09-19T15:44:10;17.80;99.90
1546;DHT22;766;51.502;9.752;2023-09-19T15:46:41;17.90;99.90
1546;DHT22;766;51.502;9.752;2023-09-19T15:49:09;17.80;99.90
1546;DHT22;766;51.502;9.752;2023-09-19T15:51:38;17.80;99.90
1546;DHT22;766;51.502;9.752;2023-09-19T15:54:08;17.80;99.90
1546;DHT22;766;51.502;9.752;2023-09-19T15:56:37;17.80;99.90
1546;DHT22;766;51.502;9.752;2023-09-19T15:59:08;17.80;99.90
1546;DHT22;766;51.502;9.752;2023-09-19T16:01:41;17.80;99.90
1546;DHT22;766;51.502;9.752;2023-09-19T16:04:11;17.80;99.90
1546;DHT22;766;51.502;9.752;2023-09-19T16:06:40;17.70;99.90
1546;DHT22;766;51.502;9.752;2023-09-19T16:09:09;17.70;99.90
1546;DHT22;766;51.502;9.752;2023-09-19T16:11:37;17.70;99.90
1546;DHT22;766;51.502;9.752;2023-09-19T16:14:07;17.60;99.90
1546;DHT22;766;51.502;9.752;2023-09-19T16:16:37;17.60;99.90
1546;DHT22;766;51.502;9.752;2023-09-19T16:19:07;17.60;99.90
1546;DHT22;766;51.502;9.752;2023-09-19T16:21:38;17.60;99.90
1546;DHT22;766;51.502;9.752;2023-09-19T16:24:10;17.60;99.90
1546;DHT22;766;51.502;9.752;2023-09-19T16:26:38;17.50;99.90
1546;DHT22;766;51.502;9.752;2023-09-19T16:29:06;17.50;99.90
1546;DHT22;766;51.502;9.752;2023-09-19T16:31:37;17.50;99.90
1546;DHT22;766;51.502;9.752;2023-09-19T16:34:06;17.50;99.90
1546;DHT22;766;51.502;9.752;2023-09-19T16:36:36;17.40;99.90
1546;DHT22;766;51.502;9.752;2023-09-19T16:39:05;17.40;99.90
1546;DHT22;766;51.502;9.752;2023-09-19T16:41:34;17.40;99.90
1546;DHT22;766;51.502;9.752;2023-09-19T16:44:03;17.30;99.90
1546;DHT22;766;51.502;9.752;2023-09-19T16:46:35;17.30;99.90
1546;DHT22;766;51.502;9.752;2023-09-19T16:49:04;17.20;99.90
1546;DHT22;766;51.502;9.752;2023-09-19T16:51:34;17.20;99.90
1546;DHT22;766;51.502;9.752;2023-09-19T16:54:02;17.10;99.90
1546;DHT22;766;51.502;9.752;2023-09-19T16:56:30;17.10;99.90
1546;DHT22;766;51.502;9.752;2023-09-19T16:59:03;17.10;99.90
1546;DHT22;766;51.502;9.752;2023-09-19T17:01:33;17.10;99.90
1546;DHT22;766;51.502;9.752;2023-09-19T17:04:02;17.10;99.90
1546;DHT22;766;51.502;9.752;2023-09-19T17:06:31;17.20;99.90
1546;DHT22;766;51.502;9.752;2023-09-19T17:09:01;17.20;99.90
1546;DHT22;766;51.502;9.752;2023-09-19T17:11:32;17.20;99.90
1546;DHT22;766;51.502;9.752;2023-09-19T17:14:00;17.20;99.90
1546;DHT22;766;51.502;9.752;2023-09-19T17:16:33;17.20;99.90
1546;DHT22;766;51.502;9.752;2023-09-19T17:19:01;17.20;99.90
1546;DHT22;766;51.502;9.752;2023-09-19T17:21:31;17.20;99.90
1546;DHT22;766;51.502;9.752;2023-09-19T17:24:02;17.20;99.90
1546;DHT22;766;51.502;9.752;2023-09-19T17:26:32;17.10;99.90
1546;DHT22;766;51.502;9.752;2023-09-19T17:29:00;17.10;99.90
1546;DHT22;766;51.502;9.752;2023-09-19T17:31:28;17.10;99.90
1546;DHT22;766;51.502;9.752;2023-09-19T17:33:56;17.10;99.90
1546;DHT22;766;51.502;9.752;2023-09-19T17:36:26;17.10;99.90
1546;DHT22;766;51.502;9.752;2023-09-19T17:38:55;17.00;99.90
1546;DHT22;766;51.502;9.752;2023-09-19T17:41:26;17.10;99.90
1546;DHT22;766;51.502;9.752;2023-09-19T17:43:55;17.00;99.90
1546;DHT22;766;51.502;9.752;2023-09-19T17:46:25;16.90;99.90
1546;DHT22;766;51.502;9.752;2023-09-19T17:48:56;16.90;99.90
1546;DHT22;766;51.502;9.752;2023-09-19T17:51:25;16.90;99.90
1546;DHT22;766;51.502;9.752;2023-09-19T17:53:55;16.80;99.90
1546;DHT22;766;51.502;9.752;2023-09-19T17:56:28;16.70;99.90
1546;DHT22;766;51.502;9.752;2023-09-19T17:58:57;16.60;99.90
1546;DHT22;766;51.502;9.752;2023-09-19T18:01:27;16.60;99.90
1546;DHT22;766;51.502;9.752;2023-09-19T18:03:57;16.50;99.90
1546;DHT22;766;51.502;9.752;2023-09-19T18:06:27;16.50;99.90
1546;DHT22;766;51.502;9.752;2023-09-19T18:08:58;16.50;99.90
1546;DHT22;766;51.502;9.752;2023-09-19T18:11:28;16.50;99.90
1546;DHT22;766;51.502;9.752;2023-09-19T18:13:57;16.50;99.90
1546;DHT22;766;51.502;9.752;2023-09-19T18:16:29;16.50;99.90
1546;DHT22;766;51.502;9.752;2023-09-19T18:18:59;16.40;99.90
1546;DHT22;766;51.502;9.752;2023-09-19T18:21:29;16.40;99.90
1546;DHT22;766;51.502;9.752;2023-09-19T18:23:59;16.40;99.90
1546;DHT22;766;51.502;9.752;2023-09-19T18:26:32;16.40;99.90
1546;DHT22;766;51.502;9.752;2023-09-19T18:29:03;16.40;99.90
1546;DHT22;766;51.502;9.752;2023-09-19T18:31:32;16.30;99.90
1546;DHT22;766;51.502;9.752;2023-09-19T18:34:00;16.30;99.90
1546;DHT22;766;51.502;9.752;2023-09-19T18:36:29;16.20;99.90
1546;DHT22;766;51.502;9.752;2023-09-19T18:38:57;16.30;99.90
1546;DHT22;766;51.502;9.752;2023-09-19T18:41:25;16.20;99.90
1546;DHT22;766;51.502;9.752;2023-09-19T18:43:55;16.20;99.90
1546;DHT22;766;51.502;9.752;2023-09-19T18:46:24;16.20;99.90
1546;DHT22;766;51.502;9.752;2023-09-19T18:48:53;16.20;99.90
1546;DHT22;766;51.502;9.752;2023-09-19T18:51:22;16.20;99.90
1546;DHT22;766;51.502;9.752;2023-09-19T18:53:52;16.10;99.90
1546;DHT22;766;51.502;9.752;2023-09-19T18:56:38;16.20;99.90
1546;DHT22;766;51.502;9.752;2023-09-19T18:59:09;16.10;99.90
1546;DHT22;766;51.502;9.752;2023-09-19T19:01:40;16.10;99.90
1546;DHT22;766;51.502;9.752;2023-09-19T19:04:10;16.10;99.90
1546;DHT22;766;51.502;9.752;2023-09-19T19:06:39;16.10;99.90
1546;DHT22;766;51.502;9.752;2023-09-19T19:09:07;16.10;99.90
1546;DHT22;766;51.502;9.752;2023-09-19T19:11:36;16.00;99.90
1546;DHT22;766;51.502;9.752;2023-09-19T19:14:05;16.00;99.90
1546;DHT22;766;51.502;9.752;2023-09-19T19:16:37;16.10;99.90
1546;DHT22;766;51.502;9.752;2023-09-19T19:19:06;16.00;99.90
1546;DHT22;766;51.502;9.752;2023-09-19T19:21:35;16.00;99.90
1546;DHT22;766;51.502;9.752;2023-09-19T19:24:04;16.00;99.90
1546;DHT22;766;51.502;9.752;2023-09-19T19:26:33;16.00;99.90
1546;DHT22;766;51.502;9.752;2023-09-19T19:29:02;16.00;99.90
1546;DHT22;766;51.502;9.752;2023-09-19T19:31:30;16.00;99.90
1546;DHT22;766;51.502;9.752;2023-09-19T19:34:02;16.00;99.90
1546;DHT22;766;51.502;9.752;2023-09-19T19:36:34;16.00;99.90
1546;DHT22;766;51.502;9.752;2023-09-19T19:39:03;15.90;99.90
1546;DHT22;766;51.502;9.752;2023-09-19T19:41:34;15.90;99.90
1546;DHT22;766;51.502;9.752;2023-09-19T19:44:05;15.90;99.90
1546;DHT22;766;51.502;9.752;2023-09-19T19:46:35;15.90;99.90
1546;DHT22;766;51.502;9.752;2023-09-19T19:49:05;15.80;99.90
1546;DHT22;766;51.502;9.752;2023-09-19T19:51:37;15.80;99.90
1546;DHT22;766;51.502;9.752;2023-09-19T19:54:06;15.80;99.90
1546;DHT22;766;51.502;9.752;2023-09-19T19:56:34;15.80;99.90
1546;DHT22;766;51.502;9.752;2023-09-19T19:59:02;15.80;99.90
1546;DHT22;766;51.502;9.752;2023-09-19T20:01:31;15.80;99.90
1546;DHT22;766;51.502;9.752;2023-09-19T20:03:59;15.80;99.90
1546;DHT22;766;51.502;9.752;2023-09-19T20:06:29;15.80;99.90
1546;DHT22;766;51.502;9.752;2023-09-19T20:08:58;15.70;99.90
1546;DHT22;766;51.502;9.752;2023-09-19T20:11:26;15.70;99.90
1546;DHT22;766;51.502;9.752;2023-09-19T20:13:56;15.60;99.90
1546;DHT22;766;51.502;9.752;2023-09-19T20:16:26;15.60;99.90
1546;DHT22;766;51.502;9.752;2023-09-19T20:18:59;15.60;99.90
1546;DHT22;766;51.502;9.752;2023-09-19T20:21:29;15.60;99.90
1546;DHT22;766;51.502;9.752;2023-09-19T20:23:57;15.60;99.90
1546;DHT22;766;51.502;9.752;2023-09-19T20:26:33;15.60;99.90
1546;DHT22;766;51.502;9.752;2023-09-19T20:29:04;15.60;99.90
1546;DHT22;766;51.502;9.752;2023-09-19T20:31:35;15.50;99.90
1546;DHT22;766;51.502;9.752;2023-09-19T20:34:04;15.50;99.90
1546;DHT22;766;51.502;9.752;2023-09-19T20:36:34;15.50;99.90
1546;DHT22;766;51.502;9.752;2023-09-19T20:39:07;15.40;99.90
1546;DHT22;766;51.502;9.752;2023-09-19T20:41:37;15.40;99.90
1546;DHT22;766;51.502;9.752;2023-09-19T20:44:06;15.40;99.90
1546;DHT22;766;51.502;9.752;2023-09-19T20:46:35;15.40;99.90
1546;DHT22;766;51.502;9.752;2023-09-19T20:49:06;15.40;99.90
1546;DHT22;766;51.502;9.752;2023-09-19T20:51:39;15.40;99.90
1546;DHT22;766;51.502;9.752;2023-09-19T20:54:10;15.30;99.90
1546;DHT22;766;51.502;9.752;2023-09-19T20:56:43;15.30;99.90
1546;DHT22;766;51.502;9.752;2023-09-19T20:59:14;15.30;99.90
1546;DHT22;766;51.502;9.752;2023-09-19T21:01:42;15.20;99.90
1546;DHT22;766;51.502;9.752;2023-09-19T21:04:11;15.20;99.90
1546;DHT22;766;51.502;9.752;2023-09-19T21:06:41;15.20;99.90
1546;DHT22;766;51.502;9.752;2023-09-19T21:09:09;15.30;99.90
1546;DHT22;766;51.502;9.752;2023-09-19T21:11:38;15.30;99.90
1546;DHT22;766;51.502;9.752;2023-09-19T21:14:08;15.30;99.90
1546;DHT22;766;51.502;9.752;2023-09-19T21:16:36;15.20;99.90
1546;DHT22;766;51.502;9.752;2023-09-19T21:19:04;15.20;99.90
1546;DHT22;766;51.502;9.752;2023-09-19T21:21:34;15.20;99.90
1546;DHT22;766;51.502;9.752;2023-09-19T21:24:04;15.10;99.90
1546;DHT22;766;51.502;9.752;2023-09-19T21:26:33;15.10;99.90
1546;DHT22;766;51.502;9.752;2023-09-19T21:29:01;15.10;99.90
1546;DHT22;766;51.502;9.752;2023-09-19T21:31:29;15.10;99.90
1546;DHT22;766;51.502;9.752;2023-09-19T21:34:04;15.10;99.90
1546;DHT22;766;51.502;9.752;2023-09-19T21:36:32;15.00;99.90
1546;DHT22;766;51.502;9.752;2023-09-19T21:39:01;15.00;99.90
1546;DHT22;766;51.502;9.752;2023-09-19T21:41:31;15.00;99.90
1546;DHT22;766;51.502;9.752;2023-09-19T21:43:59;15.00;99.90
1546;DHT22;766;51.502;9.752;2023-09-19T21:46:27;14.90;99.90
1546;DHT22;766;51.502;9.752;2023-09-19T21:48:55;14.90;99.90
1546;DHT22;766;51.502;9.752;2023-09-19T21:51:31;14.90;99.90
1546;DHT22;766;51.502;9.752;2023-09-19T21:54:00;14.90;99.90
1546;DHT22;766;51.502;9.752;2023-09-19T21:56:32;14.90;99.90
1546;DHT22;766;51.502;9.752;2023-09-19T21:59:00;14.90;99.90
1546;DHT22;766;51.502;9.752;2023-09-19T22:01:32;14.90;99.90
1546;DHT22;766;51.502;9.752;2023-09-19T22:04:00;14.90;99.90
1546;DHT22;766;51.502;9.752;2023-09-19T22:06:29;14.90;99.90
1546;DHT22;766;51.502;9.752;2023-09-19T22:08:57;14.90;99.90
1546;DHT22;766;51.502;9.752;2023-09-19T22:11:34;14.90;99.90
1546;DHT22;766;51.502;9.752;2023-09-19T22:14:03;14.90;99.90
1546;DHT22;766;51.502;9.752;2023-09-19T22:16:32;14.90;99.90
1546;DHT22;766;51.502;9.752;2023-09-19T22:19:00;14.90;99.90
1546;DHT22;766;51.502;9.752;2023-09-19T22:21:28;14.90;99.90
1546;DHT22;766;51.502;9.752;2023-09-19T22:24:07;14.90;99.90
1546;DHT22;766;51.502;9.752;2023-09-19T22:26:39;14.90;99.90
1546;DHT22;766;51.502;9.752;2023-09-19T22:29:12;14.90;99.90
1546;DHT22;766;51.502;9.752;2023-09-19T22:31:42;14.90;99.90
1546;DHT22;766;51.502;9.752;2023-09-19T22:34:13;14.90;99.90
1546;DHT22;766;51.502;9.752;2023-09-19T22:36:42;14.90;99.90
1546;DHT22;766;51.502;9.752;2023-09-19T22:39:11;14.90;99.90
1546;DHT22;766;51.502;9.752;2023-09-19T22:41:48;15.00;99.90
1546;DHT22;766;51.502;9.752;2023-09-19T22:44:17;15.00;99.90
1546;DHT22;766;51.502;9.752;2023-09-19T22:46:57;15.10;99.90
1546;DHT22;766;51.502;9.752;2023-09-19T22:49:26;15.20;99.90
1546;DHT22;766;51.502;9.752;2023-09-19T22:51:55;15.20;99.90
1546;DHT22;766;51.502;9.752;2023-09-19T22:54:26;15.20;99.90
1546;DHT22;766;51.502;9.752;2023-09-19T22:57:04;15.30;99.90
1546;DHT22;766;51.502;9.752;2023-09-19T22:59:36;15.30;99.90
1546;DHT22;766;51.502;9.752;2023-09-19T23:02:07;15.30;99.90
1546;DHT22;766;51.502;9.752;2023-09-19T23:04:40;15.40;99.90
1546;DHT22;766;51.502;9.752;2023-09-19T23:07:09;15.40;99.90
1546;DHT22;766;51.502;9.752;2023-09-19T23:09:38;15.40;99.90
1546;DHT22;766;51.502;9.752;2023-09-19T23:12:17;15.40;99.90
1546;DHT22;766;51.502;9.752;2023-09-19T23:14:46;15.40;99.90
1546;DHT22;766;51.502;9.752;2023-09-19T23:17:17;15.30;99.90
1546;DHT22;766;51.502;9.752;2023-09-19T23:19:49;15.40;99.90
1546;DHT22;766;51.502;9.752;2023-09-19T23:22:22;15.40;99.90
1546;DHT22;766;51.502;9.752;2023-09-19T23:24:57;15.40;99.90
1546;DHT22;766;51.502;9.752;2023-09-19T23:27:40;15.30;99.90
1546;DHT22;766;51.502;9.752;2023-09-19T23:30:21;15.30;99.90
1546;DHT22;766;51.502;9.752;2023-09-19T23:32:51;15.20;99.90
1546;DHT22;766;51.502;9.752;2023-09-19T23:35:19;15.20;99.90
1546;DHT22;766;51.502;9.752;2023-09-19T23:37:49;15.20;99.90
1546;DHT22;766;51.502;9.752;2023-09-19T23:40:18;15.20;99.90
1546;DHT22;766;51.502;9.752;2023-09-19T23:42:50;15.20;99.90
1546;DHT22;766;51.502;9.752;2023-09-19T23:45:19;15.20;99.90
1546;DHT22;766;51.502;9.752;2023-09-19T23:47:47;15.30;99.90
1546;DHT22;766;51.502;9.752;2023-09-19T23:50:17;15.30;99.90
1546;DHT22;766;51.502;9.752;2023-09-19T23:52:52;15.30;99.90
1546;DHT22;766;51.502;9.752;2023-09-19T23:55:20;15.30;99.90
1546;DHT22;766;51.502;9.752;2023-09-19T23:57:53;15.30;99.90
